6R6

Terrell County Airport

Dryden, Texas, USA
METAR K6R6 181253Z AUTO 25006KT 08/07 A2995 RMK AO1 SLP126 T00830067
Observed Flight Rules
Jan-18 @ 12:53 UTC (an hour ago)
Wind
250° at 6 knots
Temperatures Readings
Current 8°C / 46°F
Dewpoint 7°C / 45°F
Humidity 93%
Altimeter 29.95" Hg
Pressure 1012.6 hPa
Elevation 701
METAR K6R6 181253Z AUTO 25006KT 08/07 A2995 RMK AO1 SLP126 T00830067
Observed Flight Rules
Jan-18 @ 12:53 UTC
(an hour ago)
Wind
250° at 6 knots
Temperature Dewpoint
8°C / 46°F 7°C / 45°F
Humidity Altimeter Pressure
93% 29.95" Hg 1012.6 hPa